Time;durP1;ratioP1;P1;durP2;ratioP2;P2;SDS_P1;SDS_P2;PMS_P1;PMS_P2;Temp;Humidity;BMP_temperature;BMP_pressure;BME280_temperature;BME280_humidity;BME280_pressure;Samples;Min_cycle;Max_cycle;Signal;HPM_P1;HPM_P2
2022/04/02 00:01:41;;;;;;;6.03;1.60;;;;;;;;;;5069062;28;20162;-60
2022/04/02 00:04:08;;;;;;;4.53;2.00;;;;;;;;;;5071228;28;20036;-62
2022/04/02 00:06:34;;;;;;;3.35;1.50;;;;;;;;;;5071175;28;20041;-61
2022/04/02 00:09:00;;;;;;;3.97;1.33;;;;;;;;;;5068364;28;20037;-60
2022/04/02 00:11:26;;;;;;;4.90;1.60;;;;;;;;;;5070669;28;20098;-62
2022/04/02 00:13:52;;;;;;;3.08;1.17;;;;;;;;;;5070875;28;20037;-60
2022/04/02 00:16:18;;;;;;;5.18;1.48;;;;;;;;;;5068920;28;20124;-61
2022/04/02 00:18:44;;;;;;;4.30;1.05;;;;;;;;;;5069572;28;20047;-60
2022/04/02 00:21:10;;;;;;;4.43;1.17;;;;;;;;;;5068621;28;20450;-61
2022/04/02 00:23:40;;;;;;;3.60;0.90;;;;;;;;;;5069464;28;20102;-61
2022/04/02 00:26:13;;;;;;;4.40;1.50;;;;;;;;;;5066057;28;20048;-63
2022/04/02 00:28:40;;;;;;;3.00;1.20;;;;;;;;;;5067560;28;20541;-61
2022/04/02 00:31:08;;;;;;;3.17;1.23;;;;;;;;;;5065582;28;20352;-63
2022/04/02 00:33:35;;;;;;;5.47;0.90;;;;;;;;;;5068209;28;20482;-62
2022/04/02 00:36:01;;;;;;;3.00;1.20;;;;;;;;;;5066661;28;20402;-62
2022/04/02 00:38:28;;;;;;;5.47;1.05;;;;;;;;;;5067511;28;20115;-61
2022/04/02 00:40:54;;;;;;;2.90;0.93;;;;;;;;;;5067914;28;20040;-62
2022/04/02 00:43:22;;;;;;;5.32;1.35;;;;;;;;;;5068253;28;20135;-61
2022/04/02 00:45:48;;;;;;;4.57;1.08;;;;;;;;;;5065963;28;20053;-62
2022/04/02 00:48:14;;;;;;;3.53;1.15;;;;;;;;;;5065511;28;20050;-62
2022/04/02 00:50:40;;;;;;;3.33;1.10;;;;;;;;;;5065995;28;20056;-62
2022/04/02 00:53:07;;;;;;;4.40;0.85;;;;;;;;;;5083324;28;20124;-62
2022/04/02 00:55:33;;;;;;;3.42;0.80;;;;;;;;;;5066414;28;20045;-65
2022/04/02 00:57:59;;;;;;;2.45;1.02;;;;;;;;;;5068913;28;20066;-63
2022/04/02 01:00:25;;;;;;;2.75;1.00;;;;;;;;;;5066253;28;20075;-62
2022/04/02 01:02:52;;;;;;;2.60;0.65;;;;;;;;;;5066537;28;20044;-62
2022/04/02 01:05:18;;;;;;;3.72;1.05;;;;;;;;;;5050346;28;20410;-64
2022/04/02 01:07:44;;;;;;;1.33;0.57;;;;;;;;;;5066965;28;20056;-63
2022/04/02 01:10:10;;;;;;;3.95;0.80;;;;;;;;;;5050428;28;20040;-60
2022/04/02 01:12:36;;;;;;;4.20;1.05;;;;;;;;;;5069884;28;20047;-59
2022/04/02 01:15:03;;;;;;;3.03;0.80;;;;;;;;;;5068544;28;20037;-60
2022/04/02 01:17:29;;;;;;;3.88;0.80;;;;;;;;;;5069217;28;20089;-60
2022/04/02 01:19:55;;;;;;;3.72;0.82;;;;;;;;;;5067719;28;20048;-60
2022/04/02 01:22:22;;;;;;;2.83;0.77;;;;;;;;;;5051091;28;20056;-61
2022/04/02 01:24:48;;;;;;;2.22;0.75;;;;;;;;;;5068107;28;20052;-60
2022/04/02 01:27:14;;;;;;;2.78;1.00;;;;;;;;;;5067424;28;20546;-61
2022/04/02 01:29:40;;;;;;;3.53;0.65;;;;;;;;;;5070967;28;20036;-60
2022/04/02 01:32:07;;;;;;;2.45;0.75;;;;;;;;;;5066693;28;20040;-61
2022/04/02 01:34:33;;;;;;;26.30;0.88;;;;;;;;;;5069048;28;20553;-61
2022/04/02 01:36:59;;;;;;;3.55;0.90;;;;;;;;;;5066877;28;20535;-61
2022/04/02 01:39:25;;;;;;;2.53;0.77;;;;;;;;;;5068554;28;20120;-60
2022/04/02 01:41:51;;;;;;;2.67;0.68;;;;;;;;;;5067911;28;20036;-60
2022/04/02 01:44:17;;;;;;;4.10;0.88;;;;;;;;;;5069389;28;20046;-62
2022/04/02 01:46:43;;;;;;;4.88;1.08;;;;;;;;;;5068608;28;20098;-61
2022/04/02 01:49:09;;;;;;;3.28;0.88;;;;;;;;;;5067630;28;20040;-61
2022/04/02 01:51:35;;;;;;;3.92;1.20;;;;;;;;;;5048710;28;20059;-60
2022/04/02 01:54:01;;;;;;;3.83;0.85;;;;;;;;;;5068450;28;20090;-60
2022/04/02 01:56:27;;;;;;;2.78;0.80;;;;;;;;;;5068873;28;20490;-62
2022/04/02 01:58:53;;;;;;;4.72;0.95;;;;;;;;;;5067410;28;20397;-61
2022/04/02 02:01:20;;;;;;;4.68;0.82;;;;;;;;;;5066815;28;20043;-60
2022/04/02 02:03:46;;;;;;;5.07;1.02;;;;;;;;;;5068622;28;20637;-60
2022/04/02 02:06:12;;;;;;;4.20;0.85;;;;;;;;;;5083864;28;20041;-60
2022/04/02 02:08:38;;;;;;;4.85;1.10;;;;;;;;;;5050037;28;20044;-60
2022/04/02 02:11:04;;;;;;;4.45;1.10;;;;;;;;;;5048323;28;20505;-60
2022/04/02 02:13:30;;;;;;;4.78;1.13;;;;;;;;;;5082332;28;20371;-60
2022/04/02 02:15:56;;;;;;;4.55;1.00;;;;;;;;;;5068473;28;20462;-60
2022/04/02 02:18:22;;;;;;;5.55;0.90;;;;;;;;;;5068483;28;20094;-61
2022/04/02 02:20:48;;;;;;;2.83;0.65;;;;;;;;;;5073345;28;20348;-60
2022/04/02 02:23:14;;;;;;;6.28;1.35;;;;;;;;;;5068589;28;20036;-62
2022/04/02 02:25:40;;;;;;;6.82;1.60;;;;;;;;;;5066972;28;20041;-60
2022/04/02 02:28:06;;;;;;;5.28;0.75;;;;;;;;;;5068095;28;20163;-62
2022/04/02 02:30:32;;;;;;;4.68;1.08;;;;;;;;;;5066276;28;20048;-62
2022/04/02 02:35:49;;;;;;;4.72;1.23;;;;;;;;;;5065887;28;20060;-62
2022/04/02 02:38:16;;;;;;;4.97;1.10;;;;;;;;;;5063206;28;20041;-62
2022/04/02 02:40:42;;;;;;;2.33;0.90;;;;;;;;;;5047896;28;20047;-62
2022/04/02 02:43:09;;;;;;;5.97;1.33;;;;;;;;;;5065100;28;20094;-62
2022/04/02 02:45:36;;;;;;;3.90;0.77;;;;;;;;;;5065012;28;20544;-61
2022/04/02 02:48:03;;;;;;;2.22;0.85;;;;;;;;;;5063886;28;20048;-62
2022/04/02 02:50:29;;;;;;;5.05;1.00;;;;;;;;;;5066059;28;20445;-61
2022/04/02 02:52:55;;;;;;;7.72;1.33;;;;;;;;;;5065644;28;20048;-62
2022/04/02 02:55:22;;;;;;;3.40;0.60;;;;;;;;;;5065692;28;20433;-64
2022/04/02 02:57:48;;;;;;;5.45;0.85;;;;;;;;;;5064409;28;20040;-61
2022/04/02 03:00:15;;;;;;;5.65;1.45;;;;;;;;;;5063915;28;20036;-61
2022/04/02 03:02:41;;;;;;;3.45;1.17;;;;;;;;;;5066116;28;20033;-61
2022/04/02 03:05:10;;;;;;;4.25;1.20;;;;;;;;;;5063824;28;20071;-61
2022/04/02 03:07:41;;;;;;;6.85;1.25;;;;;;;;;;5065880;28;20134;-62
2022/04/02 03:10:08;;;;;;;3.75;1.02;;;;;;;;;;5066286;28;20387;-59
2022/04/02 03:12:34;;;;;;;2.78;1.00;;;;;;;;;;5067820;28;20032;-60
2022/04/02 03:15:04;;;;;;;5.45;0.90;;;;;;;;;;5067973;28;20085;-61
2022/04/02 03:17:31;;;;;;;5.93;1.52;;;;;;;;;;5066751;28;20499;-60
2022/04/02 03:19:57;;;;;;;3.35;1.20;;;;;;;;;;5049177;28;20049;-60
2022/04/02 03:22:25;;;;;;;3.33;1.15;;;;;;;;;;5071786;28;20064;-61
2022/04/02 03:24:51;;;;;;;8.27;1.85;;;;;;;;;;5083795;28;20115;-61
2022/04/02 03:27:17;;;;;;;6.95;1.27;;;;;;;;;;5069608;28;20141;-60
2022/04/02 03:29:43;;;;;;;5.55;0.95;;;;;;;;;;5070814;28;20044;-60
2022/04/02 03:32:10;;;;;;;6.00;1.08;;;;;;;;;;5071666;28;20047;-60
2022/04/02 03:34:36;;;;;;;3.70;1.45;;;;;;;;;;5069310;28;20051;-61
2022/04/02 03:37:02;;;;;;;5.57;0.93;;;;;;;;;;5071823;28;20478;-61
2022/04/02 03:39:28;;;;;;;5.03;1.13;;;;;;;;;;5051005;28;20040;-62
2022/04/02 03:41:54;;;;;;;5.15;1.40;;;;;;;;;;5067961;28;20037;-60
2022/04/02 03:44:20;;;;;;;5.75;1.30;;;;;;;;;;5070972;28;20444;-60
2022/04/02 03:49:31;;;;;;;3.83;1.20;;;;;;;;;;5069222;28;20071;-62
2022/04/02 03:51:57;;;;;;;6.30;1.48;;;;;;;;;;5070112;28;20482;-60
2022/04/02 03:54:23;;;;;;;3.05;1.30;;;;;;;;;;5069591;28;20044;-60
2022/04/02 03:56:49;;;;;;;4.50;1.60;;;;;;;;;;5069694;28;20580;-60
2022/04/02 03:59:16;;;;;;;2.45;0.88;;;;;;;;;;5067284;28;20597;-63
2022/04/02 04:01:42;;;;;;;3.80;1.33;;;;;;;;;;5066966;28;20087;-63
2022/04/02 04:04:08;;;;;;;2.33;0.75;;;;;;;;;;5069725;28;20041;-62
2022/04/02 04:06:34;;;;;;;2.53;0.65;;;;;;;;;;5067977;28;20056;-62
2022/04/02 04:09:01;;;;;;;4.55;0.70;;;;;;;;;;5069460;28;20056;-62
2022/04/02 04:11:27;;;;;;;5.68;0.90;;;;;;;;;;5067587;28;20482;-62
2022/04/02 04:13:53;;;;;;;3.65;1.30;;;;;;;;;;5069769;28;20041;-62
2022/04/02 04:16:20;;;;;;;4.82;1.38;;;;;;;;;;5068945;28;20041;-62
2022/04/02 04:18:46;;;;;;;5.35;1.45;;;;;;;;;;5069231;28;20049;-62
2022/04/02 04:21:15;;;;;;;4.97;1.88;;;;;;;;;;5070656;28;20120;-62
2022/04/02 04:23:42;;;;;;;8.50;1.60;;;;;;;;;;5068913;28;20044;-61
2022/04/02 04:26:09;;;;;;;6.10;1.60;;;;;;;;;;5066858;28;20127;-62
2022/04/02 04:28:35;;;;;;;2.25;1.30;;;;;;;;;;5066755;28;20448;-62
2022/04/02 04:31:01;;;;;;;3.85;1.23;;;;;;;;;;5064152;28;20044;-62
2022/04/02 04:33:28;;;;;;;5.13;1.70;;;;;;;;;;5082079;28;20087;-61
2022/04/02 04:35:54;;;;;;;5.28;1.80;;;;;;;;;;5049487;28;20136;-62
2022/04/02 04:38:20;;;;;;;4.95;1.85;;;;;;;;;;5067205;28;20075;-63
2022/04/02 04:40:46;;;;;;;6.63;1.65;;;;;;;;;;5066492;28;20051;-62
2022/04/02 04:43:12;;;;;;;6.40;1.63;;;;;;;;;;5065107;28;20124;-61
2022/04/02 04:45:38;;;;;;;3.30;1.55;;;;;;;;;;5066587;28;20053;-61
2022/04/02 04:48:04;;;;;;;7.60;1.88;;;;;;;;;;5068038;28;20413;-62
2022/04/02 04:50:31;;;;;;;5.25;1.60;;;;;;;;;;5080790;28;20040;-61
2022/04/02 04:52:57;;;;;;;5.72;1.80;;;;;;;;;;5066622;28;20406;-62
2022/04/02 04:55:24;;;;;;;5.93;1.40;;;;;;;;;;5067279;28;20033;-61
2022/04/02 04:57:50;;;;;;;6.18;1.85;;;;;;;;;;5049597;28;20445;-62
2022/04/02 05:00:17;;;;;;;4.38;1.75;;;;;;;;;;5064376;28;20043;-62
2022/04/02 05:02:44;;;;;;;4.35;1.52;;;;;;;;;;5049959;28;20036;-59
2022/04/02 05:05:14;;;;;;;5.32;1.90;;;;;;;;;;5066829;28;20040;-62
2022/04/02 05:07:40;;;;;;;7.30;1.80;;;;;;;;;;5064747;28;20082;-61
2022/04/02 05:10:10;;;;;;;4.60;2.20;;;;;;;;;;5066963;28;20044;-61
2022/04/02 05:12:38;;;;;;;5.55;2.20;;;;;;;;;;5064898;28;20052;-63
2022/04/02 05:15:10;;;;;;;5.03;1.42;;;;;;;;;;5064677;28;20060;-62
2022/04/02 05:17:36;;;;;;;6.47;2.38;;;;;;;;;;5067037;28;20047;-61
2022/04/02 05:20:03;;;;;;;5.65;1.48;;;;;;;;;;5065431;28;20093;-62
2022/04/02 05:22:29;;;;;;;6.95;2.10;;;;;;;;;;5067094;28;20109;-61
2022/04/02 05:24:55;;;;;;;6.65;1.92;;;;;;;;;;5048716;28;20106;-62
2022/04/02 05:27:21;;;;;;;5.97;1.80;;;;;;;;;;5049098;28;20052;-61
2022/04/02 05:29:47;;;;;;;4.93;1.95;;;;;;;;;;5066863;28;20048;-62
2022/04/02 05:32:13;;;;;;;6.25;2.25;;;;;;;;;;5064756;28;20044;-62
2022/04/02 05:34:39;;;;;;;3.30;1.45;;;;;;;;;;5066020;28;20132;-61
2022/04/02 05:37:06;;;;;;;2.63;0.95;;;;;;;;;;5065670;28;20048;-63
2022/04/02 05:39:32;;;;;;;3.67;1.05;;;;;;;;;;5065542;28;20052;-63
2022/04/02 05:41:58;;;;;;;4.03;1.17;;;;;;;;;;5065843;28;20036;-63
2022/04/02 05:44:24;;;;;;;4.30;1.20;;;;;;;;;;5065685;28;20565;-62
2022/04/02 05:46:51;;;;;;;3.95;1.05;;;;;;;;;;5065551;28;20040;-62
2022/04/02 05:49:17;;;;;;;5.75;1.10;;;;;;;;;;5048454;28;20056;-63
2022/04/02 05:51:43;;;;;;;4.55;1.20;;;;;;;;;;5063456;28;20052;-62
2022/04/02 05:54:10;;;;;;;3.30;1.58;;;;;;;;;;5066418;28;20052;-62
2022/04/02 05:56:37;;;;;;;3.58;1.25;;;;;;;;;;5067561;28;20048;-62
2022/04/02 05:59:05;;;;;;;2.40;1.00;;;;;;;;;;5049804;28;20135;-63
2022/04/02 06:01:31;;;;;;;5.93;0.95;;;;;;;;;;5064649;28;20445;-62
2022/04/02 06:03:58;;;;;;;4.68;1.67;;;;;;;;;;5064950;28;20136;-63
2022/04/02 06:06:24;;;;;;;3.90;1.15;;;;;;;;;;5082708;28;20037;-63
2022/04/02 06:08:50;;;;;;;2.30;0.88;;;;;;;;;;5064017;28;20355;-61
2022/04/02 06:11:16;;;;;;;5.22;1.00;;;;;;;;;;5064439;28;20098;-62
2022/04/02 06:13:42;;;;;;;3.22;0.73;;;;;;;;;;5065650;28;20047;-61
2022/04/02 06:16:08;;;;;;;6.68;1.30;;;;;;;;;;5079920;28;20529;-62
2022/04/02 06:18:35;;;;;;;3.20;0.70;;;;;;;;;;5063872;28;20112;-62
2022/04/02 06:21:03;;;;;;;4.85;1.23;;;;;;;;;;5065547;28;20044;-62
2022/04/02 06:23:30;;;;;;;7.47;1.40;;;;;;;;;;5077657;28;20044;-61
2022/04/02 06:25:56;;;;;;;2.22;1.05;;;;;;;;;;5064381;28;20040;-62
2022/04/02 06:28:22;;;;;;;3.92;1.20;;;;;;;;;;5066370;28;20143;-62
2022/04/02 06:30:48;;;;;;;6.75;1.15;;;;;;;;;;5065355;28;20048;-62
2022/04/02 06:33:14;;;;;;;3.65;0.90;;;;;;;;;;5066035;28;20059;-61
2022/04/02 06:35:40;;;;;;;3.67;1.08;;;;;;;;;;5064560;28;20398;-61
2022/04/02 06:38:06;;;;;;;2.97;1.20;;;;;;;;;;5064677;28;20115;-62
2022/04/02 06:40:35;;;;;;;1.73;0.40;;;;;;;;;;5066299;28;20036;-61
2022/04/02 06:43:01;;;;;;;2.17;0.52;;;;;;;;;;5064439;28;20040;-63
2022/04/02 06:45:28;;;;;;;2.38;0.75;;;;;;;;;;5047337;28;20139;-62
2022/04/02 06:47:54;;;;;;;3.20;0.80;;;;;;;;;;5062452;28;20044;-62
2022/04/02 06:50:20;;;;;;;2.92;0.60;;;;;;;;;;5047704;28;20410;-62
2022/04/02 06:52:46;;;;;;;5.45;0.88;;;;;;;;;;5065688;28;20376;-64
2022/04/02 06:55:16;;;;;;;4.22;0.88;;;;;;;;;;5065261;28;20534;-62
2022/04/02 06:57:43;;;;;;;3.20;0.75;;;;;;;;;;5067547;28;20118;-61
2022/04/02 07:00:09;;;;;;;2.75;0.82;;;;;;;;;;5069766;28;20497;-62
2022/04/02 07:02:36;;;;;;;4.15;1.02;;;;;;;;;;5070076;28;20133;-61
2022/04/02 07:05:02;;;;;;;3.92;0.70;;;;;;;;;;5053622;28;20055;-61
2022/04/02 07:07:28;;;;;;;4.20;0.80;;;;;;;;;;5070160;28;20036;-61
2022/04/02 07:09:54;;;;;;;3.38;0.60;;;;;;;;;;5071544;28;20098;-61
2022/04/02 07:12:20;;;;;;;3.13;0.50;;;;;;;;;;5070110;28;20513;-60
2022/04/02 07:14:46;;;;;;;2.22;0.50;;;;;;;;;;5070106;28;20047;-60
2022/04/02 07:17:13;;;;;;;1.75;0.60;;;;;;;;;;5071050;28;20151;-61
2022/04/02 07:19:40;;;;;;;3.20;0.60;;;;;;;;;;5069598;28;20032;-60
2022/04/02 07:22:09;;;;;;;4.05;0.43;;;;;;;;;;5069611;28;20126;-61
2022/04/02 07:24:39;;;;;;;4.32;0.80;;;;;;;;;;5068982;28;20040;-62
2022/04/02 07:27:05;;;;;;;2.78;0.60;;;;;;;;;;5048740;28;20410;-62
2022/04/02 07:29:35;;;;;;;3.15;0.65;;;;;;;;;;5049474;28;20071;-62
2022/04/02 07:32:01;;;;;;;3.40;0.82;;;;;;;;;;5067160;28;20419;-62
2022/04/02 07:34:27;;;;;;;6.38;0.77;;;;;;;;;;5069363;28;20513;-62
2022/04/02 07:37:13;;;;;;;6.35;0.80;;;;;;;;;;5070655;28;20343;-61
2022/04/02 07:39:58;;;;;;;2.88;0.50;;;;;;;;;;5069777;28;20053;-62
2022/04/02 07:42:46;;;;;;;3.65;0.60;;;;;;;;;;5067617;28;20041;-62
2022/04/02 07:45:13;;;;;;;2.03;0.40;;;;;;;;;;5069927;28;20032;-62
2022/04/02 07:47:41;;;;;;;3.08;0.40;;;;;;;;;;5069925;28;20111;-62
2022/04/02 07:50:13;;;;;;;2.50;0.30;;;;;;;;;;5069998;28;20044;-62
2022/04/02 07:52:56;;;;;;;2.88;0.32;;;;;;;;;;5070013;28;20055;-62
2022/04/02 07:55:23;;;;;;;1.67;0.30;;;;;;;;;;5053486;28;20041;-63
2022/04/02 07:57:50;;;;;;;1.15;0.30;;;;;;;;;;5069809;28;20405;-62
2022/04/02 08:00:19;;;;;;;1.02;0.22;;;;;;;;;;5069862;28;20127;-62
2022/04/02 08:02:46;;;;;;;3.10;0.30;;;;;;;;;;5071145;28;20068;-61
2022/04/02 08:05:16;;;;;;;1.73;0.30;;;;;;;;;;5071499;28;20090;-62
2022/04/02 08:07:43;;;;;;;2.30;0.30;;;;;;;;;;5070870;28;20058;-63
2022/04/02 08:10:11;;;;;;;2.78;0.45;;;;;;;;;;5069481;28;20117;-62
2022/04/02 08:12:41;;;;;;;2.60;0.50;;;;;;;;;;5053032;28;20405;-63
2022/04/02 08:15:09;;;;;;;3.50;0.40;;;;;;;;;;5069468;28;20498;-63
2022/04/02 08:17:37;;;;;;;3.92;0.40;;;;;;;;;;5070573;28;20134;-63
2022/04/02 08:20:04;;;;;;;4.30;0.85;;;;;;;;;;5069686;28;20251;-63
2022/04/02 08:22:30;;;;;;;2.72;0.45;;;;;;;;;;5070908;28;20471;-61
2022/04/02 08:24:58;;;;;;;2.65;0.50;;;;;;;;;;5069734;28;20124;-63
2022/04/02 08:27:45;;;;;;;3.05;0.38;;;;;;;;;;5071112;28;20862;-61
2022/04/02 08:30:18;;;;;;;2.83;0.35;;;;;;;;;;5069491;28;20082;-62
2022/04/02 08:33:08;;;;;;;4.57;0.43;;;;;;;;;;5069271;28;20052;-62
2022/04/02 08:35:40;;;;;;;3.20;0.55;;;;;;;;;;5069187;28;20143;-63
2022/04/02 08:38:07;;;;;;;3.17;0.77;;;;;;;;;;5069265;28;20055;-62
2022/04/02 08:40:52;;;;;;;3.45;0.50;;;;;;;;;;5069506;28;20052;-63
2022/04/02 08:43:33;;;;;;;1.60;0.40;;;;;;;;;;5071239;28;20413;-60
2022/04/02 08:46:11;;;;;;;6.10;1.05;;;;;;;;;;5072961;28;20106;-60
2022/04/02 08:48:46;;;;;;;4.80;0.68;;;;;;;;;;5072583;28;20040;-61
2022/04/02 08:51:14;;;;;;;6.20;0.50;;;;;;;;;;5072242;28;20102;-61
2022/04/02 08:53:43;;;;;;;6.70;0.63;;;;;;;;;;5071012;28;20044;-60
2022/04/02 08:56:10;;;;;;;4.15;0.70;;;;;;;;;;5071484;28;20041;-61
2022/04/02 08:58:42;;;;;;;4.95;0.57;;;;;;;;;;5072429;28;20436;-62
2022/04/02 09:01:10;;;;;;;4.70;0.52;;;;;;;;;;5070353;28;20047;-62
2022/04/02 09:03:41;;;;;;;3.25;0.30;;;;;;;;;;5069817;28;20063;-61
2022/04/02 09:06:26;;;;;;;4.03;0.40;;;;;;;;;;5068875;28;20083;-61
2022/04/02 09:09:26;;;;;;;3.53;0.60;;;;;;;;;;5069737;28;20477;-61
2022/04/02 09:12:10;;;;;;;5.05;0.60;;;;;;;;;;5081558;28;20502;-61
2022/04/02 09:14:36;;;;;;;2.85;0.40;;;;;;;;;;5053908;28;20047;-61
2022/04/02 09:17:15;;;;;;;6.40;0.60;;;;;;;;;;5072496;28;20044;-61
2022/04/02 09:19:51;;;;;;;6.38;0.98;;;;;;;;;;5070549;28;20429;-61
2022/04/02 09:22:29;;;;;;;4.80;0.43;;;;;;;;;;5053002;28;20458;-60
2022/04/02 09:24:58;;;;;;;3.00;0.50;;;;;;;;;;5070454;28;20036;-61
2022/04/02 09:27:43;;;;;;;3.42;0.38;;;;;;;;;;5070221;28;20047;-61
2022/04/02 09:30:28;;;;;;;3.60;0.50;;;;;;;;;;5071753;28;20490;-62
2022/04/02 09:33:08;;;;;;;3.50;0.70;;;;;;;;;;5071540;28;20036;-61
2022/04/02 09:35:53;;;;;;;3.38;0.40;;;;;;;;;;5071701;28;20048;-62
2022/04/02 09:38:19;;;;;;;4.88;0.55;;;;;;;;;;5070413;28;20534;-61
2022/04/02 09:40:48;;;;;;;3.35;0.80;;;;;;;;;;5071739;28;20079;-61
2022/04/02 09:43:34;;;;;;;4.50;0.60;;;;;;;;;;5071916;28;20517;-61
2022/04/02 09:46:10;;;;;;;3.88;0.73;;;;;;;;;;5069989;28;20080;-61
2022/04/02 09:49:00;;;;;;;3.83;0.60;;;;;;;;;;5071669;28;20048;-61
2022/04/02 09:51:49;;;;;;;2.38;0.50;;;;;;;;;;5069496;28;20059;-61
2022/04/02 09:54:21;;;;;;;3.13;0.80;;;;;;;;;;5069675;28;20052;-61
2022/04/02 09:56:51;;;;;;;5.75;0.77;;;;;;;;;;5071204;28;20501;-61
2022/04/02 09:59:37;;;;;;;2.80;0.52;;;;;;;;;;5053501;28;20089;-61
2022/04/02 10:02:04;;;;;;;2.40;0.45;;;;;;;;;;5069693;28;20045;-60
2022/04/02 10:04:41;;;;;;;6.45;0.75;;;;;;;;;;5069989;28;20063;-61
2022/04/02 10:07:27;;;;;;;3.58;0.77;;;;;;;;;;5070016;28;20048;-61
2022/04/02 10:09:55;;;;;;;3.78;0.70;;;;;;;;;;5069174;28;20048;-62
2022/04/02 10:12:24;;;;;;;4.38;0.40;;;;;;;;;;5069629;28;20060;-60
2022/04/02 10:14:56;;;;;;;5.03;0.50;;;;;;;;;;5070917;28;20037;-61
2022/04/02 10:17:25;;;;;;;4.05;0.73;;;;;;;;;;5071092;28;20119;-62
2022/04/02 10:19:53;;;;;;;2.35;0.60;;;;;;;;;;5069640;28;20048;-62
2022/04/02 10:22:26;;;;;;;4.65;0.80;;;;;;;;;;5069902;28;20141;-61
2022/04/02 10:25:00;;;;;;;5.25;0.75;;;;;;;;;;5069467;28;20058;-62
2022/04/02 10:27:34;;;;;;;3.97;0.65;;;;;;;;;;5069871;28;20119;-60
2022/04/02 10:30:03;;;;;;;5.18;0.73;;;;;;;;;;5071391;28;20074;-59
2022/04/02 10:32:38;;;;;;;2.97;0.75;;;;;;;;;;5069706;28;20051;-60
2022/04/02 10:35:06;;;;;;;4.72;0.70;;;;;;;;;;5074514;28;20483;-60
2022/04/02 10:37:39;;;;;;;3.72;0.60;;;;;;;;;;5073508;28;20059;-61
2022/04/02 10:40:07;;;;;;;4.40;0.50;;;;;;;;;;5074798;28;20114;-60
2022/04/02 10:42:34;;;;;;;3.70;0.70;;;;;;;;;;5074571;28;20149;-61
2022/04/02 10:45:03;;;;;;;4.57;0.60;;;;;;;;;;5073569;28;20368;-60
2022/04/02 10:47:30;;;;;;;3.65;0.80;;;;;;;;;;5074730;28;20394;-61
2022/04/02 10:50:07;;;;;;;5.78;0.60;;;;;;;;;;5075308;28;20044;-60
2022/04/02 10:52:34;;;;;;;3.75;0.50;;;;;;;;;;5074704;28;20060;-61
2022/04/02 10:55:00;;;;;;;3.53;0.40;;;;;;;;;;5074648;28;20044;-61
2022/04/02 10:57:30;;;;;;;2.67;0.60;;;;;;;;;;5073183;28;20040;-61
2022/04/02 11:00:01;;;;;;;2.72;0.32;;;;;;;;;;5074446;28;20084;-61
2022/04/02 11:02:34;;;;;;;2.33;0.40;;;;;;;;;;5074743;28;20040;-61
2022/04/02 11:05:07;;;;;;;1.90;0.40;;;;;;;;;;5073145;28;20086;-61
2022/04/02 11:07:44;;;;;;;0.65;0.10;;;;;;;;;;5073486;28;20044;-61
2022/04/02 11:10:20;;;;;;;2.15;0.32;;;;;;;;;;5073186;28;20099;-60
2022/04/02 11:12:49;;;;;;;1.40;0.40;;;;;;;;;;5072871;28;20037;-61
2022/04/02 11:15:15;;;;;;;4.20;0.30;;;;;;;;;;5073330;28;20048;-61
2022/04/02 11:17:42;;;;;;;1.60;0.30;;;;;;;;;;5074459;28;20438;-61
2022/04/02 11:20:09;;;;;;;1.70;0.25;;;;;;;;;;5073072;28;20037;-61
2022/04/02 11:22:42;;;;;;;1.95;0.40;;;;;;;;;;5072560;28;20043;-61
2022/04/02 11:25:10;;;;;;;3.92;0.40;;;;;;;;;;5072135;28;20028;-61
2022/04/02 11:27:38;;;;;;;2.22;0.40;;;;;;;;;;5071858;28;20437;-61
2022/04/02 11:30:08;;;;;;;1.58;0.22;;;;;;;;;;5071489;28;20041;-62
2022/04/02 11:32:39;;;;;;;2.85;0.45;;;;;;;;;;5065100;28;20044;-61
2022/04/02 11:35:14;;;;;;;2.15;0.40;;;;;;;;;;5071742;28;20047;-62
2022/04/02 11:37:46;;;;;;;2.80;0.50;;;;;;;;;;5072444;28;20101;-63
2022/04/02 11:40:15;;;;;;;5.22;0.40;;;;;;;;;;5052866;28;20093;-63
2022/04/02 11:42:45;;;;;;;2.95;0.63;;;;;;;;;;5070312;28;20514;-63
2022/04/02 11:45:17;;;;;;;1.80;0.60;;;;;;;;;;5050003;28;20119;-63
2022/04/02 11:47:47;;;;;;;2.45;0.50;;;;;;;;;;5063804;28;20602;-63
2022/04/02 11:50:22;;;;;;;4.95;0.52;;;;;;;;;;5069658;28;20412;-63
2022/04/02 11:52:50;;;;;;;2.47;0.47;;;;;;;;;;5070843;28;20056;-63
2022/04/02 11:55:16;;;;;;;3.03;0.50;;;;;;;;;;5050981;28;20040;-63
2022/04/02 11:57:57;;;;;;;3.75;0.40;;;;;;;;;;5070705;28;20398;-64
2022/04/02 12:00:27;;;;;;;4.30;0.50;;;;;;;;;;5070928;28;20051;-63
2022/04/02 12:02:54;;;;;;;2.60;0.50;;;;;;;;;;5069007;28;20052;-63
2022/04/02 12:05:20;;;;;;;4.05;0.77;;;;;;;;;;5071153;28;20049;-63
2022/04/02 12:07:50;;;;;;;2.25;0.40;;;;;;;;;;5071053;28;20051;-62
2022/04/02 12:10:17;;;;;;;4.20;0.90;;;;;;;;;;5071396;28;20537;-62
2022/04/02 12:12:43;;;;;;;3.15;0.57;;;;;;;;;;5069892;28;20136;-62
2022/04/02 12:15:10;;;;;;;2.38;0.50;;;;;;;;;;5071181;28;20548;-63
2022/04/02 12:17:37;;;;;;;3.22;0.52;;;;;;;;;;5070828;28;20093;-62
2022/04/02 12:20:07;;;;;;;1.15;0.43;;;;;;;;;;5070114;28;20334;-63
2022/04/02 12:22:36;;;;;;;3.35;0.50;;;;;;;;;;5071006;28;20041;-62
2022/04/02 12:25:05;;;;;;;2.85;0.63;;;;;;;;;;5069466;28;20041;-62
2022/04/02 12:27:35;;;;;;;3.70;0.60;;;;;;;;;;5070070;28;20036;-63
2022/04/02 12:30:07;;;;;;;3.08;0.55;;;;;;;;;;5070304;28;20028;-63
2022/04/02 12:32:33;;;;;;;7.30;0.60;;;;;;;;;;5068635;28;20079;-63
2022/04/02 12:35:00;;;;;;;2.00;0.40;;;;;;;;;;5069313;28;20052;-63
2022/04/02 12:37:28;;;;;;;5.63;1.27;;;;;;;;;;5053425;28;20044;-60
2022/04/02 12:39:54;;;;;;;2.33;0.50;;;;;;;;;;5072375;28;20052;-61
2022/04/02 12:42:40;;;;;;;5.18;0.60;;;;;;;;;;5071104;28;20490;-62
2022/04/02 12:45:07;;;;;;;6.00;0.50;;;;;;;;;;5071012;28;20048;-61
2022/04/02 12:47:34;;;;;;;4.78;0.40;;;;;;;;;;5072637;28;20037;-60
2022/04/02 12:50:10;;;;;;;6.18;0.65;;;;;;;;;;5069918;28;20395;-62
2022/04/02 12:52:50;;;;;;;2.45;0.40;;;;;;;;;;5068091;28;20258;-61
2022/04/02 12:55:17;;;;;;;3.97;0.40;;;;;;;;;;5061958;28;20072;-63
2022/04/02 12:58:05;;;;;;;2.72;0.40;;;;;;;;;;5060902;28;20040;-63
2022/04/02 13:00:37;;;;;;;5.15;2.25;;;;;;;;;;5060984;28;20045;-63
2022/04/02 13:03:04;;;;;;;2.60;0.60;;;;;;;;;;5064158;28;20044;-63
2022/04/02 13:05:45;;;;;;;1.88;0.40;;;;;;;;;;5066601;28;20048;-63
2022/04/02 13:08:19;;;;;;;2.15;0.70;;;;;;;;;;5050329;28;20039;-63
2022/04/02 13:10:45;;;;;;;2.35;0.40;;;;;;;;;;5065543;28;20072;-63
2022/04/02 13:13:15;;;;;;;5.70;0.50;;;;;;;;;;5067390;28;20136;-63
2022/04/02 13:15:54;;;;;;;2.80;0.40;;;;;;;;;;5066758;28;20348;-62
2022/04/02 13:21:10;;;;;;;2.38;0.50;;;;;;;;;;5067002;28;20123;-63
2022/04/02 13:23:36;;;;;;;3.15;0.40;;;;;;;;;;5067385;28;20494;-64
2022/04/02 13:26:05;;;;;;;1.98;0.40;;;;;;;;;;5066109;28;20051;-62
2022/04/02 13:28:40;;;;;;;3.80;0.35;;;;;;;;;;5065241;28;20072;-61
2022/04/02 13:31:06;;;;;;;1.77;0.30;;;;;;;;;;5068461;28;20114;-64
2022/04/02 13:33:32;;;;;;;2.95;0.40;;;;;;;;;;5066235;28;20032;-63
2022/04/02 13:36:03;;;;;;;2.45;0.40;;;;;;;;;;5067003;28;20040;-62
2022/04/02 13:38:29;;;;;;;2.00;0.38;;;;;;;;;;5066991;28;20028;-63
2022/04/02 13:41:02;;;;;;;4.25;0.45;;;;;;;;;;5063124;28;20036;-64
2022/04/02 13:43:28;;;;;;;;;;;;;;;;;;5048135;28;20033;-63
2022/04/02 13:45:56;;;;;;;3.10;0.40;;;;;;;;;;5068005;28;20015;-61
2022/04/02 13:48:24;;;;;;;3.90;0.40;;;;;;;;;;5069396;28;20033;-61
2022/04/02 13:51:16;;;;;;;4.03;0.60;;;;;;;;;;5067686;28;20036;-62
2022/04/02 13:53:44;;;;;;;3.30;0.35;;;;;;;;;;5075126;28;20045;-63
2022/04/02 13:56:20;;;;;;;2.17;0.40;;;;;;;;;;5064780;28;20385;-61
2022/04/02 13:58:47;;;;;;;3.17;0.32;;;;;;;;;;5067079;28;20119;-61
2022/04/02 14:01:18;;;;;;;3.35;0.30;;;;;;;;;;5067809;28;20394;-61
2022/04/02 14:03:48;;;;;;;3.53;0.43;;;;;;;;;;5068885;28;20517;-62
2022/04/02 14:06:15;;;;;;;1.70;0.40;;;;;;;;;;5068629;28;20037;-61
2022/04/02 14:08:47;;;;;;;1.52;0.30;;;;;;;;;;5068766;28;20101;-61
2022/04/02 14:11:17;;;;;;;2.88;0.38;;;;;;;;;;5067990;28;20049;-62
2022/04/02 14:13:56;;;;;;;2.33;0.50;;;;;;;;;;5068811;28;20530;-61
2022/04/02 14:16:25;;;;;;;2.58;0.40;;;;;;;;;;5050584;28;20040;-62
2022/04/02 14:18:51;;;;;;;4.00;0.40;;;;;;;;;;5066198;28;20036;-62
2022/04/02 14:21:18;;;;;;;2.58;0.40;;;;;;;;;;5049699;28;20041;-63
2022/04/02 14:23:49;;;;;;;3.05;0.40;;;;;;;;;;5066586;28;20584;-63
2022/04/02 14:26:25;;;;;;;2.17;0.32;;;;;;;;;;5068716;28;20048;-63
2022/04/02 14:28:57;;;;;;;2.20;0.38;;;;;;;;;;5068061;28;20048;-63
2022/04/02 14:31:32;;;;;;;3.63;0.50;;;;;;;;;;5067806;28;20041;-63
2022/04/02 14:34:17;;;;;;;4.85;0.47;;;;;;;;;;5069571;28;20052;-63
2022/04/02 14:36:46;;;;;;;2.97;0.30;;;;;;;;;;5069476;28;20072;-62
2022/04/02 14:39:32;;;;;;;3.38;0.40;;;;;;;;;;5067957;28;20051;-63
2022/04/02 14:42:10;;;;;;;5.40;0.40;;;;;;;;;;5069556;28;20482;-63
2022/04/02 14:44:48;;;;;;;2.17;0.30;;;;;;;;;;5068495;28;20444;-63
2022/04/02 14:47:44;;;;;;;3.22;0.60;;;;;;;;;;5068423;28;20075;-63
2022/04/02 14:50:24;;;;;;;4.60;0.52;;;;;;;;;;5043135;28;20048;-61
2022/04/02 14:53:06;;;;;;;3.00;0.52;;;;;;;;;;5069721;28;20076;-62
2022/04/02 14:55:51;;;;;;;2.00;0.30;;;;;;;;;;5068884;28;20040;-61
2022/04/02 14:58:17;;;;;;;1.92;0.38;;;;;;;;;;5070208;28;20047;-61
2022/04/02 15:01:03;;;;;;;2.35;0.32;;;;;;;;;;5069902;28;20032;-61
2022/04/02 15:03:32;;;;;;;1.83;0.30;;;;;;;;;;5069809;28;20123;-63
2022/04/02 15:05:58;;;;;;;1.27;0.20;;;;;;;;;;5067289;28;20043;-63